Stratton, Texas
Current Conditions -  °F | °C
As of 2:51 AM on Thursday 18 Dec 2014 (Local Time) from KVCT Reporting Station
Haze Haze  
Wind Chill: 64°   Ceiling: 4000
Heat Index: 64°   Visibility: 4mi
Dew Point: 63°   Wind: 5mph
Humidity: 96%   Direction: 80°E
Pressure: 30.04"   Gusts: NA
Location:  29.0941°N, 97.191°W
Report Text: KVCT 180851Z AUTO 08004KT 4SM BR FEW021 OVC040 18/17 A3004 RMK AO2 SLP172 60000 T01780172 56013
Loading
Personal Weather Stations






























Interactive Weather Map New forecast layout! Learn more

10-Day Weather Forecast

Advertisements
Track Severe Weather on mobile